createdAt,value
2024-03-05T00:01:04.041Z,7.5
2024-03-05T00:02:18.382Z,7.5
2024-03-05T00:03:31.691Z,7.6
2024-03-05T00:04:45.984Z,7.6
2024-03-05T00:06:00.277Z,7.6
2024-03-05T00:07:14.570Z,7.6
2024-03-05T00:08:28.863Z,7.6
2024-03-05T00:09:43.156Z,7.6
2024-03-05T00:10:57.448Z,7.6
2024-03-05T00:12:11.741Z,7.6
2024-03-05T00:13:26.034Z,7.6
2024-03-05T00:14:40.327Z,7.6
2024-03-05T00:15:54.620Z,7.6
2024-03-05T00:17:08.913Z,7.6
2024-03-05T00:18:23.206Z,7.6
2024-03-05T00:19:36.515Z,7.6
2024-03-05T00:20:50.765Z,7.6
2024-03-05T00:22:05.101Z,7.6
2024-03-05T00:23:19.393Z,7.6
2024-03-05T00:24:33.639Z,7.6
2024-03-05T00:25:47.980Z,7.6
2024-03-05T00:27:02.272Z,7.7
2024-03-05T00:28:16.521Z,7.6
2024-03-05T00:29:30.858Z,7.6
2024-03-05T00:30:45.151Z,7.6
2024-03-05T00:31:59.444Z,7.7
2024-03-05T00:33:13.737Z,7.7
2024-03-05T00:34:28.030Z,7.6
2024-03-05T00:35:41.288Z,7.6
2024-03-05T00:36:55.599Z,7.6
2024-03-05T00:38:09.925Z,7.7
2024-03-05T00:39:24.218Z,7.6
2024-03-05T00:40:38.511Z,7.6
2024-03-05T00:41:52.804Z,7.7
2024-03-05T00:43:07.057Z,7.7
2024-03-05T00:44:21.390Z,7.6
2024-03-05T00:45:35.683Z,7.6
2024-03-05T00:46:49.976Z,7.6
2024-03-05T00:48:04.269Z,7.6
2024-03-05T00:49:18.562Z,7.6
2024-03-05T00:50:32.855Z,7.6
2024-03-05T00:51:46.163Z,7.6
2024-03-05T00:53:00.456Z,7.7
2024-03-05T00:54:14.749Z,7.7
2024-03-05T00:55:29.042Z,7.6
2024-03-05T00:56:43.335Z,7.6
2024-03-05T00:57:57.628Z,7.6
2024-03-05T00:59:11.921Z,7.5
2024-03-05T01:00:26.214Z,7.4
2024-03-05T01:01:40.507Z,7.3
2024-03-05T01:02:54.800Z,7.2
2024-03-05T01:04:09.093Z,7.2
2024-03-05T01:05:23.386Z,7.1
2024-03-05T01:06:37.679Z,7.1
2024-03-05T01:07:50.988Z,7
2024-03-05T01:09:05.282Z,7
2024-03-05T01:10:19.575Z,7.1
2024-03-05T01:11:33.868Z,7.1
2024-03-05T01:12:48.123Z,7.2
2024-03-05T01:14:02.454Z,7.2
2024-03-05T01:15:16.705Z,7.3
2024-03-05T01:16:31.041Z,7.2
2024-03-05T01:17:45.334Z,7.2
2024-03-05T01:18:59.627Z,7.1
2024-03-05T01:20:13.873Z,7
2024-03-05T01:21:28.213Z,6.9
2024-03-05T01:22:42.506Z,6.9
2024-03-05T01:23:55.815Z,6.9
2024-03-05T01:25:10.108Z,7
2024-03-05T01:26:24.401Z,7.1
2024-03-05T01:27:38.694Z,7.1
2024-03-05T01:28:52.987Z,7.2
2024-03-05T01:30:07.280Z,7.2
2024-03-05T01:31:21.573Z,7.3
2024-03-05T01:32:35.866Z,7.3
2024-03-05T01:33:50.159Z,7.3
2024-03-05T01:35:04.452Z,7.3
2024-03-05T01:36:18.705Z,7.3
2024-03-05T01:37:33.038Z,7.3
2024-03-05T01:38:47.292Z,7.3
2024-03-05T01:40:00.641Z,7.3
2024-03-05T01:41:14.890Z,7.3
2024-03-05T01:42:29.228Z,7.3
2024-03-05T01:43:43.522Z,7.3
2024-03-05T01:44:57.815Z,7.3
2024-03-05T01:46:12.108Z,7.3
2024-03-05T01:47:26.402Z,7.3
2024-03-05T01:48:40.695Z,7.3
2024-03-05T01:49:54.988Z,7.3
2024-03-05T01:51:09.233Z,7.3
2024-03-05T01:52:23.576Z,7.3
2024-03-05T01:53:37.869Z,7.3
2024-03-05T01:54:52.163Z,7.3
2024-03-05T01:56:05.472Z,7.2
2024-03-05T01:57:19.765Z,7.3
2024-03-05T01:58:34.005Z,7.3
2024-03-05T01:59:48.352Z,7.3
2024-03-05T02:01:02.645Z,7.3
2024-03-05T02:02:16.938Z,7.3
2024-03-05T02:03:31.179Z,7.3
2024-03-05T02:04:45.476Z,7.2
2024-03-05T02:05:59.817Z,7.2
2024-03-05T02:07:14.110Z,7.3
2024-03-05T02:08:28.403Z,7.2
2024-03-05T02:09:42.696Z,7.2
2024-03-05T02:10:56.989Z,7.2
2024-03-05T02:12:10.260Z,7.3
2024-03-05T02:13:24.570Z,7.3
2024-03-05T02:14:38.885Z,7.3
2024-03-05T02:15:53.165Z,7.2
2024-03-05T02:17:07.471Z,7.3
2024-03-05T02:18:21.763Z,7.2
2024-03-05T02:19:36.056Z,7.2
2024-03-05T02:20:50.349Z,7.2
2024-03-05T02:22:04.642Z,7.2
2024-03-05T02:23:18.935Z,7.2
2024-03-05T02:24:33.228Z,7.2
2024-03-05T02:25:47.521Z,7.2
2024-03-05T02:27:01.814Z,7.2
2024-03-05T02:28:15.102Z,7.2
2024-03-05T02:29:29.416Z,7.2
2024-03-05T02:30:43.709Z,7.2
2024-03-05T02:31:58.002Z,7.2
2024-03-05T02:33:12.296Z,7.2
2024-03-05T02:34:26.589Z,7.2
2024-03-05T02:35:40.882Z,7.2
2024-03-05T02:36:55.175Z,7.2
2024-03-05T02:38:09.468Z,7.1
2024-03-05T02:39:23.761Z,7.1
2024-03-05T02:40:38.029Z,7
2024-03-05T02:41:52.346Z,6.9
2024-03-05T02:43:06.641Z,6.8
2024-03-05T02:44:19.950Z,6.7
2024-03-05T02:45:34.243Z,6.7
2024-03-05T02:46:48.536Z,6.8
2024-03-05T02:48:02.828Z,6.9
2024-03-05T02:49:17.121Z,6.9
2024-03-05T02:50:31.414Z,6.9
2024-03-05T02:51:45.707Z,6.9
2024-03-05T02:52:59.988Z,7
2024-03-05T02:54:14.293Z,7.1
2024-03-05T02:55:28.586Z,7.1
2024-03-05T02:56:42.869Z,7.1
2024-03-05T02:57:57.172Z,7.2
2024-03-05T02:59:11.464Z,7.1
2024-03-05T03:00:24.774Z,7.2
2024-03-05T03:01:39.058Z,7.2
2024-03-05T03:02:53.359Z,7.2
2024-03-05T03:04:07.652Z,7.2
2024-03-05T03:05:21.937Z,7.2
2024-03-05T03:06:36.238Z,7.2
2024-03-05T03:07:50.531Z,7.2
2024-03-05T03:09:04.824Z,7.2
2024-03-05T03:10:19.117Z,7.2
2024-03-05T03:11:33.398Z,7.2
2024-03-05T03:12:47.702Z,7.2
2024-03-05T03:14:01.995Z,7.2
2024-03-05T03:15:16.288Z,7.2
2024-03-05T03:16:29.597Z,7.2
2024-03-05T03:17:43.881Z,7.2
2024-03-05T03:18:58.175Z,7.3
2024-03-05T03:20:12.476Z,7.2
2024-03-05T03:21:26.769Z,7.2
2024-03-05T03:22:41.062Z,7.2
2024-03-05T03:23:55.355Z,7.2
2024-03-05T03:25:09.648Z,7.2
2024-03-05T03:26:23.941Z,7.2
2024-03-05T03:27:38.234Z,7.3
2024-03-05T03:28:52.528Z,7.2
2024-03-05T03:30:06.800Z,7.3
2024-03-05T03:31:21.114Z,7.3
2024-03-05T03:32:34.423Z,7.3
2024-03-05T03:33:48.701Z,7.3
2024-03-05T03:35:03.008Z,7.3
2024-03-05T03:36:17.301Z,7.3
2024-03-05T03:37:31.594Z,7.3
2024-03-05T03:38:45.887Z,7.3
2024-03-05T03:40:00.180Z,7.3
2024-03-05T03:41:14.473Z,7.3
2024-03-05T03:42:28.747Z,7.3
2024-03-05T03:43:43.059Z,7.3
2024-03-05T03:44:57.352Z,7.3
2024-03-05T03:46:11.645Z,7.3
2024-03-05T03:47:25.938Z,7.2
2024-03-05T03:48:39.247Z,7.3
2024-03-05T03:49:53.540Z,7.2
2024-03-05T03:51:07.834Z,7.2
2024-03-05T03:52:22.127Z,7.2
2024-03-05T03:53:36.419Z,7.1
2024-03-05T03:54:50.705Z,7
2024-03-05T03:56:04.026Z,6.9
2024-03-05T03:57:18.319Z,6.8
2024-03-05T03:58:32.612Z,6.7
2024-03-05T03:59:46.905Z,6.6
2024-03-05T04:01:01.198Z,6.7
2024-03-05T04:02:15.491Z,6.8
2024-03-05T04:03:29.784Z,6.9
2024-03-05T04:04:44.077Z,6.9
2024-03-05T04:05:58.369Z,7
2024-03-05T04:07:12.662Z,7.1
2024-03-05T04:08:26.955Z,7.1
2024-03-05T04:09:41.248Z,7.1
2024-03-05T04:10:55.541Z,7.1
2024-03-05T04:12:09.834Z,7.1
2024-03-05T04:13:23.143Z,7.2
2024-03-05T04:14:37.436Z,7.2
2024-03-05T04:15:51.729Z,7.2
2024-03-05T04:17:06.022Z,7.2
2024-03-05T04:18:20.305Z,7.2
2024-03-05T04:19:34.608Z,7.2
2024-03-05T04:20:48.901Z,7.3
2024-03-05T04:22:03.194Z,7.2
2024-03-05T04:23:17.488Z,7.3
2024-03-05T04:24:31.780Z,7.3
2024-03-05T04:25:46.073Z,7.3
2024-03-05T04:27:00.367Z,7.3
2024-03-05T04:28:14.659Z,7.3
2024-03-05T04:29:27.969Z,7.3
2024-03-05T04:30:42.262Z,7.4
2024-03-05T04:31:56.555Z,7.3
2024-03-05T04:33:10.848Z,7.3
2024-03-05T04:34:25.142Z,7.4
2024-03-05T04:35:39.434Z,7.4
2024-03-05T04:36:53.727Z,7.4
2024-03-05T04:38:08.020Z,7.4
2024-03-05T04:39:22.313Z,7.4
2024-03-05T04:40:36.606Z,7.4
2024-03-05T04:41:50.899Z,7.4
2024-03-05T04:43:05.192Z,7.3
2024-03-05T04:44:19.485Z,7.3
2024-03-05T04:45:32.794Z,7.3
2024-03-05T04:46:47.088Z,7.3
2024-03-05T04:48:01.372Z,7.3
2024-03-05T04:49:15.674Z,7.3
2024-03-05T04:50:29.967Z,7.3
2024-03-05T04:51:44.259Z,7.3
2024-03-05T04:52:58.552Z,7.2
2024-03-05T04:54:12.833Z,7.3
2024-03-05T04:55:27.139Z,7.3
2024-03-05T04:56:41.428Z,7.2
2024-03-05T04:57:55.718Z,7.2
2024-03-05T04:59:10.017Z,7.2
2024-03-05T05:00:24.310Z,7.2
2024-03-05T05:01:37.620Z,7.2
2024-03-05T05:02:51.907Z,7.2
2024-03-05T05:04:06.206Z,7.1
2024-03-05T05:05:20.500Z,7.1
2024-03-05T05:06:34.793Z,7.1
2024-03-05T05:07:49.085Z,7
2024-03-05T05:09:03.378Z,6.9
2024-03-05T05:10:17.671Z,6.9
2024-03-05T05:11:31.964Z,6.9
2024-03-05T05:12:46.257Z,6.9
2024-03-05T05:14:00.550Z,6.9
2024-03-05T05:15:14.844Z,6.9
2024-03-05T05:16:29.137Z,7
2024-03-05T05:17:42.445Z,7
2024-03-05T05:18:56.738Z,7.1
2024-03-05T05:20:11.031Z,7.1
2024-03-05T05:21:25.304Z,7.1
2024-03-05T05:22:39.617Z,7.1
2024-03-05T05:23:53.910Z,7.2
2024-03-05T05:25:08.203Z,7.2
2024-03-05T05:26:22.496Z,7.2
2024-03-05T05:27:36.790Z,7.1
2024-03-05T05:28:51.083Z,7.2
2024-03-05T05:30:05.376Z,7.2
2024-03-05T05:31:19.669Z,7.3
2024-03-05T05:32:33.908Z,7.2
2024-03-05T05:33:47.217Z,7.2
2024-03-05T05:35:01.467Z,7.2
2024-03-05T05:36:15.706Z,7.2
2024-03-05T05:37:29.947Z,7.2
2024-03-05T05:38:44.240Z,7.2
2024-03-05T05:39:58.518Z,7.2
2024-03-05T05:41:12.783Z,7.2
2024-03-05T05:42:27.022Z,7.2
2024-03-05T05:43:41.246Z,7.1
2024-03-05T05:44:55.500Z,7.1
2024-03-05T05:46:09.739Z,7.1
2024-03-05T05:47:23.979Z,7.1
2024-03-05T05:48:38.218Z,7.1
2024-03-05T05:49:51.473Z,7.1
2024-03-05T05:51:05.712Z,7
2024-03-05T05:52:19.950Z,7
2024-03-05T05:53:34.190Z,7
2024-03-05T05:56:02.667Z,7
2024-03-05T05:57:16.906Z,6.9
2024-03-05T05:58:31.146Z,7
2024-03-05T05:59:45.385Z,7
2024-03-05T06:00:59.624Z,7
2024-03-05T06:02:13.851Z,7
2024-03-05T06:03:28.102Z,6.9
2024-03-05T06:04:42.341Z,7
2024-03-05T06:05:55.596Z,7
2024-03-05T06:07:09.836Z,7
2024-03-05T06:08:24.075Z,6.9
2024-03-05T06:10:52.555Z,7
2024-03-05T06:12:06.794Z,6.9
2024-03-05T06:13:21.034Z,6.9
2024-03-05T06:14:35.273Z,6.8
2024-03-05T06:15:49.513Z,6.7
2024-03-05T06:17:03.752Z,6.7
2024-03-05T06:18:17.991Z,6.6
2024-03-05T06:19:32.231Z,6.6
2024-03-05T06:20:46.470Z,6.6
2024-03-05T06:21:59.726Z,6.5
2024-03-05T06:23:13.947Z,6.5
2024-03-05T06:24:28.192Z,6.6
2024-03-05T06:25:42.444Z,6.6
2024-03-05T06:26:56.683Z,6.6
2024-03-05T06:28:10.922Z,6.7
2024-03-05T06:29:25.161Z,6.7
2024-03-05T06:30:39.400Z,6.7
2024-03-05T06:31:53.639Z,6.7
2024-03-05T06:33:07.878Z,6.7
2024-03-05T06:34:22.117Z,6.8
2024-03-05T06:35:36.353Z,6.7
2024-03-05T06:36:50.596Z,6.7
2024-03-05T06:38:03.851Z,6.7
2024-03-05T06:39:18.090Z,6.7
2024-03-05T06:40:32.330Z,6.8
2024-03-05T06:41:46.569Z,6.7
2024-03-05T06:43:00.808Z,6.7
2024-03-05T06:44:15.047Z,6.7
2024-03-05T06:45:29.287Z,6.7
2024-03-05T06:46:43.526Z,6.7
2024-03-05T06:47:57.745Z,6.7
2024-03-05T06:49:12.005Z,6.7
2024-03-05T06:50:26.245Z,6.7
2024-03-05T06:51:40.485Z,6.7
2024-03-05T06:52:54.724Z,6.7
2024-03-05T06:54:07.980Z,6.7
2024-03-05T06:55:22.199Z,6.7
2024-03-05T06:56:36.459Z,6.6
2024-03-05T06:57:50.698Z,6.6
2024-03-05T06:59:04.938Z,6.6
2024-03-05T07:00:19.177Z,6.6
2024-03-05T07:01:33.411Z,6.5
2024-03-05T07:02:47.657Z,6.5
2024-03-05T07:04:01.896Z,6.5
2024-03-05T07:05:16.136Z,6.5
2024-03-05T07:06:30.375Z,6.5
2024-03-05T07:07:44.615Z,6.5
2024-03-05T07:08:58.832Z,6.5
2024-03-05T07:10:12.110Z,6.5
2024-03-05T07:11:26.349Z,6.5
2024-03-05T07:12:40.584Z,6.5
2024-03-05T07:13:54.829Z,6.5
2024-03-05T07:15:09.068Z,6.5
2024-03-05T07:16:23.308Z,6.5
2024-03-05T07:17:37.547Z,6.4
2024-03-05T07:18:51.787Z,6.4
2024-03-05T07:20:06.026Z,6.4
2024-03-05T07:21:20.266Z,6.4
2024-03-05T07:22:34.499Z,6.4
2024-03-05T07:23:48.745Z,6.3
2024-03-05T07:25:02.973Z,6.2
2024-03-05T07:26:16.240Z,6.2
2024-03-05T07:27:30.480Z,6.2
2024-03-05T07:28:44.719Z,6.3
2024-03-05T07:29:58.959Z,6.3
2024-03-05T07:31:13.198Z,6.3
2024-03-05T07:32:27.438Z,6.4
2024-03-05T07:33:41.677Z,6.4
2024-03-05T07:34:55.917Z,6.4
2024-03-05T07:36:10.157Z,6.4
2024-03-05T07:37:24.396Z,6.4
2024-03-05T07:38:38.636Z,6.4
2024-03-05T07:39:52.875Z,6.4
2024-03-05T07:41:07.115Z,6.4
2024-03-05T07:42:20.371Z,6.4
2024-03-05T07:43:34.610Z,6.4
2024-03-05T07:44:48.850Z,6.4
2024-03-05T07:46:03.089Z,6.5
2024-03-05T07:47:17.316Z,6.4
2024-03-05T07:48:31.568Z,6.4
2024-03-05T07:49:45.804Z,6.4
2024-03-05T07:51:00.047Z,6.5
2024-03-05T07:52:14.287Z,6.4
2024-03-05T07:53:28.526Z,6.4
2024-03-05T07:54:42.766Z,6.4
2024-03-05T07:55:57.006Z,6.4
2024-03-05T07:57:11.245Z,6.4
2024-03-05T07:58:24.501Z,6.4
2024-03-05T07:59:38.735Z,6.4
2024-03-05T08:00:52.980Z,6.4
2024-03-05T08:02:07.201Z,6.4
2024-03-05T08:03:21.459Z,6.4
2024-03-05T08:04:34.720Z,6.4
2024-03-05T08:05:48.959Z,6.4
2024-03-05T08:07:03.199Z,6.4
2024-03-05T08:08:17.439Z,6.4
2024-03-05T08:09:31.665Z,6.4
2024-03-05T08:10:45.918Z,6.4
2024-03-05T08:12:00.157Z,6.5
2024-03-05T08:13:14.397Z,6.4
2024-03-05T08:14:28.615Z,6.4
2024-03-05T08:15:42.876Z,6.4
2024-03-05T08:16:57.115Z,6.5
2024-03-05T08:18:11.355Z,6.5
2024-03-05T08:19:25.595Z,6.5
2024-03-05T08:20:38.850Z,6.5
2024-03-05T08:21:53.090Z,6.5
2024-03-05T08:23:07.329Z,6.5
2024-03-05T08:24:21.555Z,6.5
2024-03-05T08:25:35.808Z,6.4
2024-03-05T08:26:50.025Z,6.4
2024-03-05T08:28:04.287Z,6.4
2024-03-05T08:29:18.527Z,6.3
2024-03-05T08:30:32.766Z,6.3
2024-03-05T08:31:47.006Z,6.3
2024-03-05T08:33:01.245Z,6.3
2024-03-05T08:34:15.483Z,6.3
2024-03-05T08:35:29.724Z,6.4
2024-03-05T08:36:42.980Z,6.4
2024-03-05T08:37:57.219Z,6.4
2024-03-05T08:39:11.445Z,6.4
2024-03-05T08:40:25.699Z,6.4
2024-03-05T08:41:39.938Z,6.4
2024-03-05T08:42:54.178Z,6.4
2024-03-05T08:44:08.417Z,6.4
2024-03-05T08:45:22.656Z,6.4
2024-03-05T08:46:36.896Z,6.4
2024-03-05T08:47:51.135Z,6.4
2024-03-05T08:49:05.375Z,6.5
2024-03-05T08:50:19.615Z,6.5
2024-03-05T08:51:33.848Z,6.5
2024-03-05T08:52:47.110Z,6.5
2024-03-05T08:54:01.349Z,6.5
2024-03-05T08:55:15.588Z,6.5
2024-03-05T08:56:29.828Z,6.5
2024-03-05T08:57:44.067Z,6.4
2024-03-05T08:58:58.307Z,6.4
2024-03-05T09:00:12.528Z,6.4
2024-03-05T09:01:26.777Z,6.4
2024-03-05T09:02:41.026Z,6.3
2024-03-05T09:03:55.265Z,6.4
2024-03-05T09:05:09.505Z,6.4
2024-03-05T09:06:23.724Z,6.3
2024-03-05T09:07:37.983Z,6.3
2024-03-05T09:08:51.239Z,6.3
2024-03-05T09:10:05.479Z,6.3
2024-03-05T09:11:19.718Z,6.3
2024-03-05T09:12:33.958Z,6.3
2024-03-05T09:13:48.197Z,6.3
2024-03-05T09:15:02.437Z,6.3
2024-03-05T09:16:16.670Z,6.3
2024-03-05T09:17:30.916Z,6.2
2024-03-05T09:18:45.155Z,6.3
2024-03-05T09:19:59.395Z,6.3
2024-03-05T09:21:13.635Z,6.3
2024-03-05T09:22:27.861Z,6.3
2024-03-05T09:23:42.114Z,6.3
2024-03-05T09:24:55.369Z,6.4
2024-03-05T09:26:09.609Z,6.4
2024-03-05T09:27:23.849Z,6.4
2024-03-05T09:28:38.088Z,6.4
2024-03-05T09:29:52.328Z,6.4
2024-03-05T09:31:06.567Z,6.4
2024-03-05T09:32:20.807Z,6.4
2024-03-05T09:33:35.027Z,6.3
2024-03-05T09:34:49.286Z,6.3
2024-03-05T09:36:03.517Z,6.3
2024-03-05T09:37:17.760Z,6.3
2024-03-05T09:38:32.005Z,6.2
2024-03-05T09:39:46.244Z,6.2
2024-03-05T09:40:59.500Z,6.2
2024-03-05T09:42:13.740Z,6.2
2024-03-05T09:43:27.979Z,6.2
2024-03-05T09:44:42.219Z,6.2
2024-03-05T09:45:56.459Z,6.3
2024-03-05T09:47:10.698Z,6.3
2024-03-05T09:48:24.938Z,6.4
2024-03-05T09:49:39.177Z,6.4
2024-03-05T09:50:53.417Z,6.4
2024-03-05T09:52:07.656Z,6.4
2024-03-05T09:53:21.885Z,6.4
2024-03-05T09:54:36.137Z,6.5
2024-03-05T09:55:50.376Z,6.5
2024-03-05T09:57:03.632Z,6.5
2024-03-05T09:58:17.871Z,6.5
2024-03-05T09:59:32.111Z,6.5
2024-03-05T10:00:46.350Z,6.6
2024-03-05T10:02:00.590Z,6.5
2024-03-05T10:03:14.829Z,6.5
2024-03-05T10:04:29.069Z,6.5
2024-03-05T10:05:43.308Z,6.5
2024-03-05T10:06:57.548Z,6.5
2024-03-05T10:08:11.788Z,6.5
2024-03-05T10:09:26.028Z,6.5
2024-03-05T10:10:40.267Z,6.5
2024-03-05T10:11:54.507Z,6.6
2024-03-05T10:13:07.762Z,6.5
2024-03-05T10:14:22.002Z,6.6
2024-03-05T10:15:36.241Z,6.5
2024-03-05T10:16:50.481Z,6.5
2024-03-05T10:18:04.706Z,6.5
2024-03-05T10:19:18.960Z,6.5
2024-03-05T10:20:33.200Z,6.6
2024-03-05T10:21:47.439Z,6.5
2024-03-05T10:23:01.678Z,6.5
2024-03-05T10:24:15.918Z,6.5
2024-03-05T10:25:30.139Z,6.5
2024-03-05T10:26:44.397Z,6.5
2024-03-05T10:27:58.637Z,6.5
2024-03-05T10:29:11.892Z,6.5
2024-03-05T10:30:26.131Z,6.5
2024-03-05T10:31:40.371Z,6.5
2024-03-05T10:32:54.611Z,6.5
2024-03-05T10:34:08.850Z,6.5
2024-03-05T10:35:23.090Z,6.5
2024-03-05T10:36:37.329Z,6.5
2024-03-05T10:37:51.570Z,6.5
2024-03-05T10:39:05.810Z,6.5
2024-03-05T10:40:20.049Z,6.5
2024-03-05T10:41:34.289Z,6.4
2024-03-05T10:42:48.509Z,6.4
2024-03-05T10:44:02.768Z,6.3
2024-03-05T10:45:16.023Z,6.3
2024-03-05T10:46:30.263Z,6.3
2024-03-05T10:47:44.502Z,6.3
2024-03-05T10:48:58.742Z,6.2
2024-03-05T10:50:12.982Z,6.2
2024-03-05T10:51:27.219Z,6.3
2024-03-05T10:52:41.461Z,6.3
2024-03-05T10:53:55.700Z,6.3
2024-03-05T10:55:09.940Z,6.3
2024-03-05T10:56:24.179Z,6.3
2024-03-05T10:57:38.419Z,6.4
2024-03-05T10:58:52.659Z,6.4
2024-03-05T11:00:06.898Z,6.4
2024-03-05T11:01:20.154Z,6.4
2024-03-05T11:02:34.394Z,6.5
2024-03-05T11:03:48.633Z,6.4
2024-03-05T11:05:02.873Z,6.4
2024-03-05T11:06:17.106Z,6.4
2024-03-05T11:07:31.352Z,6.4
2024-03-05T11:08:45.591Z,6.4
2024-03-05T11:09:59.831Z,6.4
2024-03-05T11:11:14.070Z,6.4
2024-03-05T11:12:28.310Z,6.4
2024-03-05T11:13:42.540Z,6.4
2024-03-05T11:14:56.789Z,6.4
2024-03-05T11:16:11.029Z,6.4
2024-03-05T11:17:24.284Z,6.4
2024-03-05T11:18:38.524Z,6.4
2024-03-05T11:19:52.763Z,6.4
2024-03-05T11:21:06.994Z,6.4
2024-03-05T11:22:21.243Z,6.3
2024-03-05T11:23:35.482Z,6.3
2024-03-05T11:24:49.722Z,6.4
2024-03-05T11:26:03.961Z,6.4
2024-03-05T11:27:18.201Z,6.4
2024-03-05T11:28:32.420Z,6.4
2024-03-05T11:29:46.680Z,6.4
2024-03-05T11:31:00.920Z,6.4
2024-03-05T11:32:15.159Z,6.4
2024-03-05T11:33:28.415Z,6.4
2024-03-05T11:34:42.637Z,6.4
2024-03-05T11:35:56.000Z,6.4
2024-03-05T11:37:11.133Z,6.4
2024-03-05T11:38:25.373Z,6.4
2024-03-05T11:39:39.612Z,6.4
2024-03-05T11:40:53.852Z,6.4
2024-03-05T11:42:08.092Z,6.4
2024-03-05T11:43:22.321Z,6.5
2024-03-05T11:44:36.571Z,6.4
2024-03-05T11:45:50.810Z,6.5
2024-03-05T11:47:05.050Z,6.5
2024-03-05T11:48:19.289Z,6.5
2024-03-05T11:49:32.545Z,6.4
2024-03-05T11:50:46.784Z,6.4
2024-03-05T11:52:01.024Z,6.3
2024-03-05T11:53:15.264Z,6.3
2024-03-05T11:54:29.503Z,6.2
2024-03-05T11:55:43.743Z,6.2
2024-03-05T11:56:57.961Z,6.2
2024-03-05T11:58:12.222Z,6.2
2024-03-05T11:59:26.461Z,6.2
2024-03-05T12:00:40.701Z,6.3
2024-03-05T12:01:54.941Z,6.3
2024-03-05T12:03:09.180Z,6.3
2024-03-05T12:04:23.420Z,6.4
2024-03-05T12:05:36.676Z,6.3
2024-03-05T12:06:50.915Z,6.4
2024-03-05T12:08:05.155Z,6.4
2024-03-05T12:09:19.394Z,6.4
2024-03-05T12:10:33.633Z,6.4
2024-03-05T12:11:47.873Z,6.4
2024-03-05T12:13:01.133Z,6.4
2024-03-05T12:14:15.372Z,6.5
2024-03-05T12:15:29.611Z,6.5
2024-03-05T12:16:43.852Z,6.5
2024-03-05T12:17:58.091Z,6.5
2024-03-05T12:19:12.330Z,6.5
2024-03-05T12:20:26.570Z,6.5
2024-03-05T12:21:40.809Z,6.5
2024-03-05T12:22:55.049Z,6.5
2024-03-05T12:24:09.288Z,6.4
2024-03-05T12:25:23.527Z,6.4
2024-03-05T12:26:37.768Z,6.4
2024-03-05T12:27:52.007Z,6.4
2024-03-05T12:29:05.262Z,6.5
2024-03-05T12:30:19.502Z,6.4
2024-03-05T12:31:33.728Z,6.4
2024-03-05T12:32:47.981Z,6.4
2024-03-05T12:34:02.220Z,6.4
2024-03-05T12:36:30.699Z,6.4
2024-03-05T12:37:44.939Z,6.4
2024-03-05T12:38:59.178Z,6.4
2024-03-05T12:40:13.413Z,6.4
2024-03-05T12:41:27.657Z,6.4
2024-03-05T12:42:41.897Z,6.3
2024-03-05T12:43:56.130Z,6.3
2024-03-05T12:45:09.392Z,6.3
2024-03-05T12:46:23.615Z,6.2
2024-03-05T12:47:37.871Z,6.2
2024-03-05T12:48:52.111Z,6.2
2024-03-05T12:50:06.351Z,6.2
2024-03-05T12:51:20.590Z,6.2
2024-03-05T12:52:34.830Z,6.1
2024-03-05T12:53:49.069Z,6.1
2024-03-05T12:55:03.309Z,6.1
2024-03-05T12:56:17.548Z,6.1
2024-03-05T12:57:31.775Z,6.1
2024-03-05T12:58:46.027Z,6.1
2024-03-05T13:00:00.267Z,6.1
2024-03-05T13:01:13.522Z,6.1
2024-03-05T13:02:27.761Z,6
2024-03-05T13:03:42.001Z,6
2024-03-05T13:04:56.240Z,6
2024-03-05T13:06:10.480Z,5.9
2024-03-05T13:07:24.719Z,5.9
2024-03-05T13:08:38.959Z,5.8
2024-03-05T13:09:53.199Z,5.8
2024-03-05T13:11:07.438Z,5.8
2024-03-05T13:12:21.678Z,5.8
2024-03-05T13:13:35.918Z,5.8
2024-03-05T13:14:50.157Z,5.8
2024-03-05T13:16:04.397Z,5.8
2024-03-05T13:17:17.652Z,5.8
2024-03-05T13:18:31.891Z,5.8
2024-03-05T13:19:46.130Z,5.8
2024-03-05T13:21:00.370Z,5.8
2024-03-05T13:22:14.609Z,5.8
2024-03-05T13:23:28.849Z,5.8
2024-03-05T13:24:43.088Z,5.8
2024-03-05T13:25:57.328Z,5.8
2024-03-05T13:27:11.567Z,5.7
2024-03-05T13:28:25.807Z,5.8
2024-03-05T13:29:40.046Z,5.7
2024-03-05T13:30:54.285Z,5.7
2024-03-05T13:32:08.525Z,5.7
2024-03-05T13:33:21.781Z,5.7
2024-03-05T13:34:36.020Z,5.7
2024-03-05T13:35:50.259Z,5.6
2024-03-05T13:37:04.500Z,5.6
2024-03-05T13:38:18.739Z,5.6
2024-03-05T13:39:32.979Z,5.5
2024-03-05T13:40:47.219Z,5.5
2024-03-05T13:42:01.458Z,5.5
2024-03-05T13:43:15.680Z,5.5
2024-03-05T13:44:29.937Z,5.5
2024-03-05T13:45:44.177Z,5.4
2024-03-05T13:46:58.416Z,5.5
2024-03-05T13:48:12.656Z,5.4
2024-03-05T13:49:25.911Z,5.4
2024-03-05T13:50:40.151Z,5.4
2024-03-05T13:51:54.391Z,5.4
2024-03-05T13:53:08.631Z,5.4
2024-03-05T13:54:22.870Z,5.4
2024-03-05T13:55:37.110Z,5.4
2024-03-05T13:56:51.349Z,5.4
2024-03-05T13:58:05.589Z,5.4
2024-03-05T13:59:19.829Z,5.4
2024-03-05T14:00:34.068Z,5.4
2024-03-05T14:01:48.308Z,5.3
2024-03-05T14:03:02.548Z,5.3
2024-03-05T14:04:16.787Z,5.3
2024-03-05T14:05:30.043Z,5.2
2024-03-05T14:06:44.283Z,5.1
2024-03-05T14:09:12.762Z,5
2024-03-05T14:10:27.002Z,5
2024-03-05T14:11:41.241Z,4.9
2024-03-05T14:12:55.481Z,4.9
2024-03-05T14:14:09.721Z,4.9
2024-03-05T14:15:23.958Z,5
2024-03-05T14:16:38.200Z,5
2024-03-05T14:17:52.440Z,5
2024-03-05T14:19:06.679Z,5
2024-03-05T14:20:20.919Z,5
2024-03-05T14:21:34.175Z,5.1
2024-03-05T14:22:48.414Z,5.1
2024-03-05T14:24:02.654Z,5.1
2024-03-05T14:25:16.894Z,5.1
2024-03-05T14:26:31.134Z,5.1
2024-03-05T14:27:45.373Z,5.1
2024-03-05T14:28:59.613Z,5.1
2024-03-05T14:30:13.853Z,5.1
2024-03-05T14:31:28.092Z,5.1
2024-03-05T14:32:42.333Z,5.1
2024-03-05T14:33:56.568Z,5.1
2024-03-05T14:35:10.813Z,5.1
2024-03-05T14:36:25.052Z,5
2024-03-05T14:37:38.308Z,5
2024-03-05T14:38:52.548Z,5
2024-03-05T14:40:06.771Z,4.9
2024-03-05T14:41:21.027Z,4.9
2024-03-05T14:42:35.267Z,4.9
2024-03-05T14:43:49.488Z,4.8
2024-03-05T14:45:03.746Z,4.8
2024-03-05T14:46:17.986Z,4.7
2024-03-05T14:47:32.226Z,4.7
2024-03-05T14:48:46.466Z,4.8
2024-03-05T14:50:00.705Z,4.8
2024-03-05T14:51:14.945Z,4.8
2024-03-05T14:52:29.184Z,4.8
2024-03-05T14:53:42.440Z,4.9
2024-03-05T14:54:56.680Z,4.9
2024-03-05T14:56:10.920Z,4.9
2024-03-05T14:57:25.160Z,4.9
2024-03-05T14:58:39.399Z,5
2024-03-05T14:59:53.639Z,5
2024-03-05T15:01:07.879Z,5
2024-03-05T15:02:22.101Z,5
2024-03-05T15:03:36.358Z,5
2024-03-05T15:04:50.599Z,5.1
2024-03-05T15:06:04.839Z,5
2024-03-05T15:07:19.078Z,5
2024-03-05T15:08:33.318Z,5.1
2024-03-05T15:09:46.574Z,5.1
2024-03-05T15:11:00.813Z,5.1
2024-03-05T15:12:15.053Z,5.1
2024-03-05T15:13:29.293Z,5.1
2024-03-05T15:14:43.532Z,5.1
2024-03-05T15:15:57.772Z,5.1
2024-03-05T15:17:12.012Z,5.1
2024-03-05T15:18:26.252Z,5.1
2024-03-05T15:19:40.491Z,5.2
2024-03-05T15:20:54.731Z,5.2
2024-03-05T15:22:08.971Z,5.2
2024-03-05T15:23:23.210Z,5.2
2024-03-05T15:24:37.450Z,5.2
2024-03-05T15:25:50.705Z,5.2
2024-03-05T15:27:04.945Z,5.2
2024-03-05T15:28:19.185Z,5.2
2024-03-05T15:29:33.425Z,5.2
2024-03-05T15:30:47.664Z,5.2
2024-03-05T15:32:01.904Z,5.1
2024-03-05T15:33:16.145Z,5.1
2024-03-05T15:34:30.384Z,5.1
2024-03-05T15:35:44.624Z,5
2024-03-05T15:36:58.864Z,4.9
2024-03-05T15:38:13.104Z,4.9
2024-03-05T15:39:27.343Z,4.9
2024-03-05T15:40:41.570Z,4.9
2024-03-05T15:41:54.839Z,4.9
2024-03-05T15:43:09.078Z,4.9
2024-03-05T15:44:23.318Z,4.9
2024-03-05T15:45:37.558Z,4.9
2024-03-05T15:46:51.781Z,4.9
2024-03-05T15:48:06.038Z,4.9
2024-03-05T15:49:20.278Z,5
2024-03-05T15:50:34.518Z,5
2024-03-05T15:51:48.757Z,5
2024-03-05T15:53:02.997Z,5.1
2024-03-05T15:54:17.237Z,5.1
2024-03-05T15:55:31.476Z,5.1
2024-03-05T15:56:45.716Z,5.1
2024-03-05T15:57:58.972Z,5.1
2024-03-05T15:59:13.211Z,5.1
2024-03-05T16:00:27.451Z,5.2
2024-03-05T16:01:41.691Z,5.2
2024-03-05T16:02:55.930Z,5.2
2024-03-05T16:04:10.170Z,5.2
2024-03-05T16:05:24.410Z,5.2
2024-03-05T16:06:38.650Z,5.2
2024-03-05T16:07:52.889Z,5.2
2024-03-05T16:09:07.129Z,5.3
2024-03-05T16:10:21.369Z,5.3
2024-03-05T16:11:35.608Z,5.3
2024-03-05T16:12:49.848Z,5.2
2024-03-05T16:14:03.104Z,5.3
2024-03-05T16:15:17.343Z,5.3
2024-03-05T16:16:31.583Z,5.2
2024-03-05T16:17:45.823Z,5.2
2024-03-05T16:19:00.062Z,5.2
2024-03-05T16:20:14.295Z,5.1
2024-03-05T16:21:27.563Z,5.1
2024-03-05T16:22:41.803Z,5
2024-03-05T16:23:56.043Z,5
2024-03-05T16:25:10.282Z,5
2024-03-05T16:26:24.522Z,5
2024-03-05T16:27:38.762Z,5.1
2024-03-05T16:28:53.001Z,5.1
2024-03-05T16:30:07.241Z,5.1
2024-03-05T16:31:21.480Z,5.1
2024-03-05T16:32:35.720Z,5.1
2024-03-05T16:33:49.960Z,5.1
2024-03-05T16:35:04.200Z,5.1
2024-03-05T16:36:18.439Z,5.1
2024-03-05T16:37:31.695Z,5.2
2024-03-05T16:38:45.935Z,5.2
2024-03-05T16:40:00.174Z,5.2
2024-03-05T16:41:14.414Z,5.2
2024-03-05T16:42:28.655Z,5.2
2024-03-05T16:43:42.895Z,5.2
2024-03-05T16:44:57.134Z,5.2
2024-03-05T16:46:11.374Z,5.2
2024-03-05T16:47:25.613Z,5.2
2024-03-05T16:48:39.853Z,5.2
2024-03-05T16:49:54.093Z,5.2
2024-03-05T16:51:08.332Z,5.2
2024-03-05T16:52:22.572Z,5.3
2024-03-05T16:53:35.828Z,5.2
2024-03-05T16:54:50.068Z,5.3
2024-03-05T16:56:04.307Z,5.2
2024-03-05T16:57:18.548Z,5.3
2024-03-05T16:58:32.788Z,5.3
2024-03-05T16:59:47.027Z,5.2
2024-03-05T17:01:01.267Z,5.2
2024-03-05T17:02:15.507Z,5.2
2024-03-05T17:03:29.746Z,5.2
2024-03-05T17:04:43.986Z,5.2
2024-03-05T17:05:58.226Z,5.2
2024-03-05T17:07:12.465Z,5.2
2024-03-05T17:08:26.705Z,5.2
2024-03-05T17:10:54.200Z,5.1
2024-03-05T17:12:08.440Z,5.1